sensor_id;sensor_type;location;lat;lon;timestamp;pressure;altitude;pressure_sealevel;temperature;humidity
82395;BME280;72031;51.786;4.662;2023-08-20T00:02:07;102162.84;;;18.67;76.08
82395;BME280;72031;51.786;4.662;2023-08-20T00:04:36;102158.50;;;18.76;75.55
82395;BME280;72031;51.786;4.662;2023-08-20T00:07:02;102170.28;;;18.75;75.35
82395;BME280;72031;51.786;4.662;2023-08-20T00:09:28;102175.25;;;18.70;76.38
82395;BME280;72031;51.786;4.662;2023-08-20T00:11:54;102181.66;;;18.69;73.77
82395;BME280;72031;51.786;4.662;2023-08-20T00:14:20;102189.59;;;18.81;73.97
82395;BME280;72031;51.786;4.662;2023-08-20T00:16:45;102186.53;;;18.75;73.48
82395;BME280;72031;51.786;4.662;2023-08-20T00:19:11;102178.97;;;18.90;72.67
82395;BME280;72031;51.786;4.662;2023-08-20T00:21:41;102179.06;;;18.99;72.04
82395;BME280;72031;51.786;4.662;2023-08-20T00:24:08;102187.59;;;19.16;72.13
82395;BME280;72031;51.786;4.662;2023-08-20T00:26:34;102196.00;;;19.12;73.24
82395;BME280;72031;51.786;4.662;2023-08-20T00:28:59;102194.28;;;19.11;72.74
82395;BME280;72031;51.786;4.662;2023-08-20T00:31:25;102203.25;;;19.12;72.52
82395;BME280;72031;51.786;4.662;2023-08-20T00:33:50;102211.38;;;19.12;72.16
82395;BME280;72031;51.786;4.662;2023-08-20T00:36:16;102214.16;;;19.22;72.65
82395;BME280;72031;51.786;4.662;2023-08-20T00:38:41;102222.78;;;19.27;71.59
82395;BME280;72031;51.786;4.662;2023-08-20T00:41:06;102227.44;;;19.25;70.73
82395;BME280;72031;51.786;4.662;2023-08-20T00:43:32;102227.69;;;19.22;71.34
82395;BME280;72031;51.786;4.662;2023-08-20T00:45:59;102222.00;;;19.25;71.97
82395;BME280;72031;51.786;4.662;2023-08-20T00:48:25;102227.41;;;19.36;71.33
82395;BME280;72031;51.786;4.662;2023-08-20T00:50:51;102215.56;;;19.37;71.71
82395;BME280;72031;51.786;4.662;2023-08-20T00:53:17;102217.28;;;19.38;72.05
82395;BME280;72031;51.786;4.662;2023-08-20T00:55:44;102232.81;;;19.36;70.98
82395;BME280;72031;51.786;4.662;2023-08-20T00:58:10;102225.97;;;19.21;71.85
82395;BME280;72031;51.786;4.662;2023-08-20T01:00:36;102221.28;;;19.23;71.40
82395;BME280;72031;51.786;4.662;2023-08-20T01:03:01;102226.72;;;19.23;71.77
82395;BME280;72031;51.786;4.662;2023-08-20T01:05:32;102227.97;;;19.19;72.65
82395;BME280;72031;51.786;4.662;2023-08-20T01:08:15;102225.19;;;19.09;72.54
82395;BME280;72031;51.786;4.662;2023-08-20T01:11:06;102228.59;;;19.11;72.55
82395;BME280;72031;51.786;4.662;2023-08-20T01:13:32;102225.28;;;19.07;73.43
82395;BME280;72031;51.786;4.662;2023-08-20T01:15:58;102231.56;;;19.08;73.94
82395;BME280;72031;51.786;4.662;2023-08-20T01:18:24;102231.97;;;19.03;73.30
82395;BME280;72031;51.786;4.662;2023-08-20T01:20:58;102236.16;;;18.96;73.98
82395;BME280;72031;51.786;4.662;2023-08-20T01:29:13;102241.91;;;19.03;73.69
82395;BME280;72031;51.786;4.662;2023-08-20T01:31:40;102238.59;;;19.10;73.00
82395;BME280;72031;51.786;4.662;2023-08-20T01:34:06;102236.59;;;19.12;73.00
82395;BME280;72031;51.786;4.662;2023-08-20T01:36:31;102239.16;;;19.14;73.43
82395;BME280;72031;51.786;4.662;2023-08-20T01:38:56;102244.84;;;19.11;74.50
82395;BME280;72031;51.786;4.662;2023-08-20T01:41:22;102241.88;;;19.14;73.97
82395;BME280;72031;51.786;4.662;2023-08-20T01:43:49;102241.28;;;19.10;73.78
82395;BME280;72031;51.786;4.662;2023-08-20T01:46:14;102242.59;;;19.16;74.17
82395;BME280;72031;51.786;4.662;2023-08-20T01:48:40;102243.22;;;19.20;73.36
82395;BME280;72031;51.786;4.662;2023-08-20T01:51:05;102246.97;;;18.96;73.24
82395;BME280;72031;51.786;4.662;2023-08-20T01:53:31;102246.88;;;18.87;73.18
82395;BME280;72031;51.786;4.662;2023-08-20T01:55:56;102248.09;;;18.94;74.17
82395;BME280;72031;51.786;4.662;2023-08-20T01:58:22;102246.47;;;19.02;74.79
82395;BME280;72031;51.786;4.662;2023-08-20T02:00:47;102241.53;;;19.07;73.54
82395;BME280;72031;51.786;4.662;2023-08-20T02:03:13;102242.28;;;19.09;74.52
82395;BME280;72031;51.786;4.662;2023-08-20T02:05:38;102231.81;;;19.05;73.87
82395;BME280;72031;51.786;4.662;2023-08-20T02:08:04;102230.59;;;18.98;73.21
82395;BME280;72031;51.786;4.662;2023-08-20T02:10:29;102229.03;;;18.95;74.41
82395;BME280;72031;51.786;4.662;2023-08-20T02:12:55;102236.78;;;18.89;74.09
82395;BME280;72031;51.786;4.662;2023-08-20T02:15:20;102224.91;;;18.46;76.41
82395;BME280;72031;51.786;4.662;2023-08-20T02:17:46;102225.41;;;18.40;76.48
82395;BME280;72031;51.786;4.662;2023-08-20T02:20:11;102224.19;;;18.33;77.37
82395;BME280;72031;51.786;4.662;2023-08-20T02:22:37;102230.31;;;18.13;76.33
82395;BME280;72031;51.786;4.662;2023-08-20T02:25:03;102230.69;;;18.19;76.71
82395;BME280;72031;51.786;4.662;2023-08-20T02:27:28;102239.91;;;18.28;76.69
82395;BME280;72031;51.786;4.662;2023-08-20T02:29:54;102237.22;;;18.28;75.61
82395;BME280;72031;51.786;4.662;2023-08-20T02:32:19;102241.50;;;18.31;75.74
82395;BME280;72031;51.786;4.662;2023-08-20T02:34:49;102237.81;;;18.32;75.70
82395;BME280;72031;51.786;4.662;2023-08-20T02:37:15;102248.16;;;18.26;76.07
82395;BME280;72031;51.786;4.662;2023-08-20T02:39:40;102245.78;;;18.22;75.83
82395;BME280;72031;51.786;4.662;2023-08-20T02:42:06;102244.06;;;18.32;76.13
82395;BME280;72031;51.786;4.662;2023-08-20T02:44:31;102250.00;;;18.26;76.99
82395;BME280;72031;51.786;4.662;2023-08-20T02:46:56;102244.94;;;18.21;77.88
82395;BME280;72031;51.786;4.662;2023-08-20T02:49:22;102248.25;;;18.14;77.00
82395;BME280;72031;51.786;4.662;2023-08-20T02:51:47;102246.88;;;17.97;77.65
82395;BME280;72031;51.786;4.662;2023-08-20T02:54:13;102244.09;;;18.10;76.72
82395;BME280;72031;51.786;4.662;2023-08-20T02:56:38;102247.66;;;18.21;75.84
82395;BME280;72031;51.786;4.662;2023-08-20T02:59:04;102253.19;;;18.20;75.93
82395;BME280;72031;51.786;4.662;2023-08-20T03:01:30;102257.81;;;18.07;76.52
82395;BME280;72031;51.786;4.662;2023-08-20T03:03:55;102261.28;;;18.09;76.68
82395;BME280;72031;51.786;4.662;2023-08-20T03:06:21;102261.50;;;18.06;76.58
82395;BME280;72031;51.786;4.662;2023-08-20T03:08:46;102256.22;;;18.04;77.13
82395;BME280;72031;51.786;4.662;2023-08-20T03:11:12;102258.44;;;18.10;77.55
82395;BME280;72031;51.786;4.662;2023-08-20T03:13:37;102263.50;;;18.26;76.87
82395;BME280;72031;51.786;4.662;2023-08-20T03:16:03;102263.50;;;18.26;76.79
82395;BME280;72031;51.786;4.662;2023-08-20T03:18:28;102261.53;;;18.17;76.82
82395;BME280;72031;51.786;4.662;2023-08-20T03:20:55;102262.50;;;18.16;76.72
82395;BME280;72031;51.786;4.662;2023-08-20T03:23:21;102259.31;;;18.11;77.77
82395;BME280;72031;51.786;4.662;2023-08-20T03:25:47;102257.81;;;18.07;77.76
82395;BME280;72031;51.786;4.662;2023-08-20T03:28:12;102259.66;;;18.06;77.82
82395;BME280;72031;51.786;4.662;2023-08-20T03:30:37;102255.97;;;18.07;77.43
82395;BME280;72031;51.786;4.662;2023-08-20T03:33:03;102263.09;;;17.97;77.77
82395;BME280;72031;51.786;4.662;2023-08-20T03:35:29;102252.41;;;17.95;78.59
82395;BME280;72031;51.786;4.662;2023-08-20T03:37:54;102257.53;;;17.87;78.49
82395;BME280;72031;51.786;4.662;2023-08-20T03:40:20;102261.50;;;17.83;78.32
82395;BME280;72031;51.786;4.662;2023-08-20T03:42:45;102257.53;;;17.76;78.50
82395;BME280;72031;51.786;4.662;2023-08-20T03:45:11;102261.31;;;17.73;79.10
82395;BME280;72031;51.786;4.662;2023-08-20T03:47:36;102259.59;;;17.72;78.44
82395;BME280;72031;51.786;4.662;2023-08-20T03:50:02;102258.72;;;17.72;78.58
82395;BME280;72031;51.786;4.662;2023-08-20T03:52:28;102256.16;;;17.70;79.07
82395;BME280;72031;51.786;4.662;2023-08-20T03:54:54;102261.38;;;17.61;78.71
82395;BME280;72031;51.786;4.662;2023-08-20T03:57:19;102261.09;;;17.53;78.85
82395;BME280;72031;51.786;4.662;2023-08-20T03:59:45;102262.22;;;17.50;78.92
82395;BME280;72031;51.786;4.662;2023-08-20T04:02:11;102268.69;;;17.48;78.96
82395;BME280;72031;51.786;4.662;2023-08-20T04:04:36;102264.50;;;17.43;79.52
82395;BME280;72031;51.786;4.662;2023-08-20T04:07:02;102270.38;;;17.37;80.14
82395;BME280;72031;51.786;4.662;2023-08-20T04:09:28;102269.06;;;17.43;79.59
82395;BME280;72031;51.786;4.662;2023-08-20T04:11:53;102268.97;;;17.56;80.04
82395;BME280;72031;51.786;4.662;2023-08-20T04:14:19;102274.75;;;17.62;78.73
82395;BME280;72031;51.786;4.662;2023-08-20T04:16:44;102271.59;;;17.68;78.32
82395;BME280;72031;51.786;4.662;2023-08-20T04:19:10;102279.53;;;17.59;78.56
82395;BME280;72031;51.786;4.662;2023-08-20T04:21:35;102279.59;;;17.46;80.19
82395;BME280;72031;51.786;4.662;2023-08-20T04:24:01;102283.84;;;17.13;80.28
82395;BME280;72031;51.786;4.662;2023-08-20T04:26:26;102291.44;;;17.08;81.21
82395;BME280;72031;51.786;4.662;2023-08-20T04:28:51;102289.94;;;17.04;81.37
82395;BME280;72031;51.786;4.662;2023-08-20T04:31:17;102289.72;;;17.07;81.99
82395;BME280;72031;51.786;4.662;2023-08-20T04:33:42;102294.53;;;17.15;81.33
82395;BME280;72031;51.786;4.662;2023-08-20T04:36:08;102299.16;;;17.26;80.00
82395;BME280;72031;51.786;4.662;2023-08-20T04:38:33;102301.91;;;17.37;79.38
82395;BME280;72031;51.786;4.662;2023-08-20T04:40:59;102311.31;;;17.31;79.79
82395;BME280;72031;51.786;4.662;2023-08-20T04:43:24;102310.09;;;17.35;80.76
82395;BME280;72031;51.786;4.662;2023-08-20T04:45:50;102311.25;;;17.20;80.84
82395;BME280;72031;51.786;4.662;2023-08-20T04:48:15;102310.63;;;17.16;81.48
82395;BME280;72031;51.786;4.662;2023-08-20T04:50:40;102317.66;;;17.06;81.37
82395;BME280;72031;51.786;4.662;2023-08-20T04:53:06;102315.84;;;17.07;81.37
82395;BME280;72031;51.786;4.662;2023-08-20T04:55:31;102313.31;;;17.16;80.96
82395;BME280;72031;51.786;4.662;2023-08-20T04:57:57;102313.50;;;17.26;80.66
82395;BME280;72031;51.786;4.662;2023-08-20T05:00:22;102317.47;;;17.33;80.57
82395;BME280;72031;51.786;4.662;2023-08-20T05:02:48;102321.59;;;17.26;80.88
82395;BME280;72031;51.786;4.662;2023-08-20T05:05:14;102315.34;;;17.26;81.55
82395;BME280;72031;51.786;4.662;2023-08-20T05:07:39;102322.69;;;17.24;82.29
82395;BME280;72031;51.786;4.662;2023-08-20T05:10:07;102327.69;;;17.17;82.46
82395;BME280;72031;51.786;4.662;2023-08-20T05:12:34;102332.78;;;16.96;82.85
82395;BME280;72031;51.786;4.662;2023-08-20T05:14:59;102333.88;;;16.94;83.17
82395;BME280;72031;51.786;4.662;2023-08-20T05:17:25;102332.25;;;17.04;82.71
82395;BME280;72031;51.786;4.662;2023-08-20T05:19:50;102332.59;;;17.23;82.02
82395;BME280;72031;51.786;4.662;2023-08-20T05:22:15;102332.22;;;17.40;81.49
82395;BME280;72031;51.786;4.662;2023-08-20T05:24:41;102327.00;;;17.50;81.43
82395;BME280;72031;51.786;4.662;2023-08-20T05:27:08;102321.38;;;17.64;81.02
82395;BME280;72031;51.786;4.662;2023-08-20T05:29:34;102316.44;;;17.71;80.66
82395;BME280;72031;51.786;4.662;2023-08-20T05:32:00;102321.38;;;17.77;79.92
82395;BME280;72031;51.786;4.662;2023-08-20T05:34:26;102315.50;;;17.83;80.35
82395;BME280;72031;51.786;4.662;2023-08-20T05:36:51;102324.81;;;17.79;80.19
82395;BME280;72031;51.786;4.662;2023-08-20T05:39:17;102322.13;;;17.90;80.59
82395;BME280;72031;51.786;4.662;2023-08-20T05:41:42;102317.38;;;18.05;79.59
82395;BME280;72031;51.786;4.662;2023-08-20T05:44:07;102320.47;;;18.12;79.95
82395;BME280;72031;51.786;4.662;2023-08-20T05:46:33;102318.03;;;18.20;80.16
82395;BME280;72031;51.786;4.662;2023-08-20T05:48:58;102328.97;;;18.18;79.70
82395;BME280;72031;51.786;4.662;2023-08-20T05:51:24;102317.78;;;18.23;79.01
82395;BME280;72031;51.786;4.662;2023-08-20T05:53:49;102320.88;;;18.41;78.53
82395;BME280;72031;51.786;4.662;2023-08-20T05:56:15;102315.72;;;18.38;79.54
82395;BME280;72031;51.786;4.662;2023-08-20T05:58:40;102325.06;;;18.34;79.16
82395;BME280;72031;51.786;4.662;2023-08-20T06:01:06;102312.16;;;18.37;79.74
82395;BME280;72031;51.786;4.662;2023-08-20T06:03:31;102323.81;;;18.38;78.54
82395;BME280;72031;51.786;4.662;2023-08-20T06:05:57;102321.72;;;18.41;78.06
82395;BME280;72031;51.786;4.662;2023-08-20T06:08:23;102318.66;;;18.46;79.21
82395;BME280;72031;51.786;4.662;2023-08-20T06:10:49;102321.63;;;18.54;77.87
82395;BME280;72031;51.786;4.662;2023-08-20T06:13:14;102323.97;;;18.59;78.02
82395;BME280;72031;51.786;4.662;2023-08-20T06:15:40;102322.41;;;18.67;77.26
82395;BME280;72031;51.786;4.662;2023-08-20T06:18:05;102322.75;;;18.74;77.00
82395;BME280;72031;51.786;4.662;2023-08-20T06:20:31;102325.69;;;18.82;76.16
82395;BME280;72031;51.786;4.662;2023-08-20T06:22:56;102331.47;;;18.89;77.40
82395;BME280;72031;51.786;4.662;2023-08-20T06:25:21;102332.09;;;19.03;77.53
82395;BME280;72031;51.786;4.662;2023-08-20T06:27:47;102331.91;;;19.16;74.78
82395;BME280;72031;51.786;4.662;2023-08-20T06:30:12;102324.44;;;19.08;74.94
82395;BME280;72031;51.786;4.662;2023-08-20T06:32:38;102323.19;;;19.12;75.64
82395;BME280;72031;51.786;4.662;2023-08-20T06:35:04;102328.13;;;19.19;75.49
82395;BME280;72031;51.786;4.662;2023-08-20T06:37:29;102328.53;;;19.46;76.13
82395;BME280;72031;51.786;4.662;2023-08-20T06:39:55;102327.88;;;19.54;74.61
82395;BME280;72031;51.786;4.662;2023-08-20T06:42:20;102331.59;;;19.53;74.80
82395;BME280;72031;51.786;4.662;2023-08-20T06:44:45;102332.69;;;19.61;74.26
82395;BME280;72031;51.786;4.662;2023-08-20T06:47:11;102333.69;;;19.60;74.08
82395;BME280;72031;51.786;4.662;2023-08-20T06:49:37;102337.38;;;19.59;74.65
82395;BME280;72031;51.786;4.662;2023-08-20T06:52:02;102335.59;;;19.70;72.87
82395;BME280;72031;51.786;4.662;2023-08-20T06:54:28;102337.06;;;19.74;73.74
82395;BME280;72031;51.786;4.662;2023-08-20T06:56:53;102335.81;;;19.78;72.71
82395;BME280;72031;51.786;4.662;2023-08-20T06:59:19;102334.09;;;19.77;72.21
82395;BME280;72031;51.786;4.662;2023-08-20T07:01:44;102341.63;;;19.73;72.06
82395;BME280;72031;51.786;4.662;2023-08-20T07:04:10;102336.41;;;19.81;72.53
82395;BME280;72031;51.786;4.662;2023-08-20T07:06:35;102333.56;;;19.83;74.47
82395;BME280;72031;51.786;4.662;2023-08-20T07:09:01;102339.25;;;19.80;73.57
82395;BME280;72031;51.786;4.662;2023-08-20T07:11:26;102350.88;;;19.71;72.55
82395;BME280;72031;51.786;4.662;2023-08-20T07:13:52;102347.16;;;19.72;73.53
82395;BME280;72031;51.786;4.662;2023-08-20T07:16:17;102350.81;;;19.82;73.50
82395;BME280;72031;51.786;4.662;2023-08-20T07:18:42;102357.28;;;19.90;73.55
82395;BME280;72031;51.786;4.662;2023-08-20T07:21:08;102354.44;;;19.92;73.76
82395;BME280;72031;51.786;4.662;2023-08-20T07:23:33;102364.78;;;19.98;72.93
82395;BME280;72031;51.786;4.662;2023-08-20T07:26:08;102359.97;;;20.02;72.17
82395;BME280;72031;51.786;4.662;2023-08-20T07:28:34;102362.00;;;20.09;72.88
82395;BME280;72031;51.786;4.662;2023-08-20T07:31:19;102364.19;;;20.15;72.42
82395;BME280;72031;51.786;4.662;2023-08-20T07:33:51;102371.22;;;20.18;72.24
82395;BME280;72031;51.786;4.662;2023-08-20T07:36:18;102368.31;;;20.10;71.59
82395;BME280;72031;51.786;4.662;2023-08-20T07:38:44;102376.75;;;20.16;72.63
82395;BME280;72031;51.786;4.662;2023-08-20T07:41:10;102376.31;;;20.11;71.89
82395;BME280;72031;51.786;4.662;2023-08-20T07:43:38;102379.47;;;20.16;71.66
82395;BME280;72031;51.786;4.662;2023-08-20T07:46:04;102380.59;;;20.14;70.68
82395;BME280;72031;51.786;4.662;2023-08-20T07:48:29;102376.75;;;20.16;70.62
82395;BME280;72031;51.786;4.662;2023-08-20T07:50:55;102375.94;;;20.25;71.08
82395;BME280;72031;51.786;4.662;2023-08-20T07:53:20;102390.19;;;20.39;72.47
82395;BME280;72031;51.786;4.662;2023-08-20T07:55:46;102394.69;;;20.49;71.99
82395;BME280;72031;51.786;4.662;2023-08-20T07:58:11;102384.41;;;20.43;70.18
82395;BME280;72031;51.786;4.662;2023-08-20T08:00:37;102387.16;;;20.53;70.79
82395;BME280;72031;51.786;4.662;2023-08-20T08:03:02;102394.03;;;20.57;69.22
82395;BME280;72031;51.786;4.662;2023-08-20T08:05:28;102387.34;;;20.61;69.43
82395;BME280;72031;51.786;4.662;2023-08-20T08:07:54;102392.34;;;20.66;69.78
82395;BME280;72031;51.786;4.662;2023-08-20T08:10:20;102387.03;;;20.85;68.42
82395;BME280;72031;51.786;4.662;2023-08-20T08:12:45;102390.47;;;20.87;67.64
82395;BME280;72031;51.786;4.662;2023-08-20T08:15:11;102393.88;;;20.79;67.71
82395;BME280;72031;51.786;4.662;2023-08-20T08:17:37;102396.09;;;20.74;67.89
82395;BME280;72031;51.786;4.662;2023-08-20T08:20:03;102396.28;;;20.83;66.86
82395;BME280;72031;51.786;4.662;2023-08-20T08:22:28;102394.13;;;20.76;67.54
82395;BME280;72031;51.786;4.662;2023-08-20T08:24:54;102397.00;;;20.85;67.89
82395;BME280;72031;51.786;4.662;2023-08-20T08:27:19;102400.09;;;21.01;68.32
82395;BME280;72031;51.786;4.662;2023-08-20T08:29:44;102394.00;;;21.18;68.24
82395;BME280;72031;51.786;4.662;2023-08-20T08:32:10;102399.72;;;21.25;67.74
82395;BME280;72031;51.786;4.662;2023-08-20T08:34:36;102397.84;;;21.46;67.41
82395;BME280;72031;51.786;4.662;2023-08-20T08:37:01;102395.50;;;21.32;66.79
82395;BME280;72031;51.786;4.662;2023-08-20T08:39:26;102399.31;;;21.20;67.14
82395;BME280;72031;51.786;4.662;2023-08-20T08:42:03;102399.06;;;21.32;67.14
82395;BME280;72031;51.786;4.662;2023-08-20T08:44:33;102398.06;;;21.33;66.43
82395;BME280;72031;51.786;4.662;2023-08-20T08:46:59;102402.28;;;21.57;65.60
82395;BME280;72031;51.786;4.662;2023-08-20T08:49:25;102412.16;;;21.77;67.68
82395;BME280;72031;51.786;4.662;2023-08-20T08:51:53;102416.16;;;21.73;65.54
82395;BME280;72031;51.786;4.662;2023-08-20T08:54:20;102400.00;;;22.01;64.83
82395;BME280;72031;51.786;4.662;2023-08-20T08:56:46;102404.44;;;21.92;64.14
82395;BME280;72031;51.786;4.662;2023-08-20T08:59:11;102406.16;;;22.03;63.35
82395;BME280;72031;51.786;4.662;2023-08-20T09:01:38;102407.31;;;21.81;63.65
82395;BME280;72031;51.786;4.662;2023-08-20T09:04:05;102406.72;;;21.77;62.76
82395;BME280;72031;51.786;4.662;2023-08-20T09:06:51;102403.88;;;21.88;63.62
82395;BME280;72031;51.786;4.662;2023-08-20T09:09:19;102411.31;;;22.06;63.82
82395;BME280;72031;51.786;4.662;2023-08-20T09:11:45;102412.06;;;22.17;62.10
82395;BME280;72031;51.786;4.662;2023-08-20T09:14:24;102409.34;;;22.08;61.17
82395;BME280;72031;51.786;4.662;2023-08-20T09:16:57;102418.47;;;22.07;62.42
82395;BME280;72031;51.786;4.662;2023-08-20T09:19:23;102411.91;;;22.09;62.26
82395;BME280;72031;51.786;4.662;2023-08-20T09:21:48;102416.22;;;22.22;62.68
82395;BME280;72031;51.786;4.662;2023-08-20T09:24:15;102416.38;;;22.20;62.38
82395;BME280;72031;51.786;4.662;2023-08-20T09:26:45;102410.75;;;22.41;63.49
82395;BME280;72031;51.786;4.662;2023-08-20T09:29:11;102411.84;;;22.58;60.25
82395;BME280;72031;51.786;4.662;2023-08-20T09:31:38;102410.19;;;22.37;60.29
82395;BME280;72031;51.786;4.662;2023-08-20T09:34:04;102409.31;;;22.37;60.52
82395;BME280;72031;51.786;4.662;2023-08-20T09:36:32;102414.44;;;22.50;59.98
82395;BME280;72031;51.786;4.662;2023-08-20T09:38:58;102405.72;;;22.36;57.19
82395;BME280;72031;51.786;4.662;2023-08-20T09:41:23;102419.75;;;22.41;58.52
82395;BME280;72031;51.786;4.662;2023-08-20T09:43:56;102416.59;;;22.36;61.20
82395;BME280;72031;51.786;4.662;2023-08-20T09:46:24;102421.31;;;22.54;59.44
82395;BME280;72031;51.786;4.662;2023-08-20T09:48:51;102418.47;;;22.45;59.50
82395;BME280;72031;51.786;4.662;2023-08-20T09:51:26;102421.03;;;22.57;59.62
82395;BME280;72031;51.786;4.662;2023-08-20T09:54:19;102424.56;;;22.67;58.21
82395;BME280;72031;51.786;4.662;2023-08-20T09:56:51;102419.28;;;22.65;58.25
82395;BME280;72031;51.786;4.662;2023-08-20T09:59:18;102411.25;;;22.64;58.70
82395;BME280;72031;51.786;4.662;2023-08-20T10:01:44;102414.69;;;22.66;58.57
82395;BME280;72031;51.786;4.662;2023-08-20T10:04:10;102416.97;;;22.70;59.64
82395;BME280;72031;51.786;4.662;2023-08-20T10:06:36;102413.06;;;22.83;60.60
82395;BME280;72031;51.786;4.662;2023-08-20T10:09:02;102419.81;;;22.88;56.80
82395;BME280;72031;51.786;4.662;2023-08-20T10:11:28;102409.44;;;23.01;58.25
82395;BME280;72031;51.786;4.662;2023-08-20T10:13:54;102419.50;;;22.91;56.84
82395;BME280;72031;51.786;4.662;2023-08-20T10:16:21;102416.41;;;23.14;59.51
82395;BME280;72031;51.786;4.662;2023-08-20T10:18:47;102413.78;;;23.22;58.06
82395;BME280;72031;51.786;4.662;2023-08-20T10:21:13;102412.94;;;23.12;59.19
82395;BME280;72031;51.786;4.662;2023-08-20T10:23:41;102414.22;;;23.17;56.26
82395;BME280;72031;51.786;4.662;2023-08-20T10:26:10;102424.81;;;23.20;58.59
82395;BME280;72031;51.786;4.662;2023-08-20T10:28:36;102409.75;;;22.98;56.37
82395;BME280;72031;51.786;4.662;2023-08-20T10:31:16;102420.84;;;23.15;56.23
82395;BME280;72031;51.786;4.662;2023-08-20T10:33:55;102413.44;;;23.52;55.88
82395;BME280;72031;51.786;4.662;2023-08-20T10:36:23;102410.22;;;23.67;54.97
82395;BME280;72031;51.786;4.662;2023-08-20T10:38:53;102417.06;;;23.71;54.87
82395;BME280;72031;51.786;4.662;2023-08-20T10:41:28;102419.19;;;23.31;54.71
82395;BME280;72031;51.786;4.662;2023-08-20T10:44:00;102419.31;;;23.57;54.19
82395;BME280;72031;51.786;4.662;2023-08-20T10:46:28;102418.50;;;23.75;55.00
82395;BME280;72031;51.786;4.662;2023-08-20T10:48:57;102415.72;;;23.57;55.66
82395;BME280;72031;51.786;4.662;2023-08-20T10:51:32;102415.50;;;23.23;55.79
82395;BME280;72031;51.786;4.662;2023-08-20T10:59:25;102410.41;;;23.38;55.32
82395;BME280;72031;51.786;4.662;2023-08-20T11:01:53;102403.44;;;23.25;55.96
82395;BME280;72031;51.786;4.662;2023-08-20T11:04:22;102409.22;;;23.40;56.05
82395;BME280;72031;51.786;4.662;2023-08-20T11:06:53;102399.09;;;23.60;54.59
82395;BME280;72031;51.786;4.662;2023-08-20T11:09:21;102401.88;;;23.68;52.93
82395;BME280;72031;51.786;4.662;2023-08-20T11:11:47;102405.50;;;23.59;51.65
82395;BME280;72031;51.786;4.662;2023-08-20T11:14:14;102398.00;;;23.71;54.60
82395;BME280;72031;51.786;4.662;2023-08-20T11:16:41;102405.25;;;23.80;54.62
82395;BME280;72031;51.786;4.662;2023-08-20T11:19:07;102404.31;;;23.89;53.81
82395;BME280;72031;51.786;4.662;2023-08-20T11:21:37;102400.50;;;24.00;51.98
82395;BME280;72031;51.786;4.662;2023-08-20T11:24:03;102397.69;;;23.92;52.35
82395;BME280;72031;51.786;4.662;2023-08-20T11:26:29;102392.56;;;23.89;51.85
82395;BME280;72031;51.786;4.662;2023-08-20T11:28:55;102388.09;;;23.87;50.97
82395;BME280;72031;51.786;4.662;2023-08-20T11:31:21;102382.50;;;23.89;51.46
82395;BME280;72031;51.786;4.662;2023-08-20T11:33:47;102382.66;;;24.05;50.17
82395;BME280;72031;51.786;4.662;2023-08-20T11:36:16;102380.38;;;24.01;51.34
82395;BME280;72031;51.786;4.662;2023-08-20T11:38:42;102381.34;;;23.92;52.54
82395;BME280;72031;51.786;4.662;2023-08-20T11:41:08;102373.63;;;24.05;52.57
82395;BME280;72031;51.786;4.662;2023-08-20T11:43:33;102365.63;;;24.11;51.93
82395;BME280;72031;51.786;4.662;2023-08-20T11:45:59;102373.50;;;24.32;52.82
82395;BME280;72031;51.786;4.662;2023-08-20T11:48:25;102368.56;;;24.36;50.84
82395;BME280;72031;51.786;4.662;2023-08-20T11:50:50;102371.78;;;24.57;52.12
82395;BME280;72031;51.786;4.662;2023-08-20T11:53:21;102377.53;;;24.80;51.99
82395;BME280;72031;51.786;4.662;2023-08-20T11:55:48;102380.13;;;24.82;53.76
82395;BME280;72031;51.786;4.662;2023-08-20T11:58:14;102378.28;;;24.90;52.52
82395;BME280;72031;51.786;4.662;2023-08-20T12:00:40;102384.19;;;25.12;51.75
82395;BME280;72031;51.786;4.662;2023-08-20T12:03:08;102388.31;;;25.16;51.95
82395;BME280;72031;51.786;4.662;2023-08-20T12:05:33;102385.41;;;24.49;49.79
82395;BME280;72031;51.786;4.662;2023-08-20T12:08:01;102381.19;;;24.37;52.89
82395;BME280;72031;51.786;4.662;2023-08-20T12:10:29;102387.38;;;24.39;51.48
82395;BME280;72031;51.786;4.662;2023-08-20T12:12:56;102387.03;;;24.42;50.36
82395;BME280;72031;51.786;4.662;2023-08-20T12:15:24;102401.50;;;24.60;51.07
82395;BME280;72031;51.786;4.662;2023-08-20T12:18:03;102392.13;;;24.97;49.85
82395;BME280;72031;51.786;4.662;2023-08-20T12:20:33;102391.41;;;25.21;51.36
82395;BME280;72031;51.786;4.662;2023-08-20T12:23:05;102393.06;;;24.80;50.99
82395;BME280;72031;51.786;4.662;2023-08-20T12:25:32;102390.38;;;24.88;49.83
82395;BME280;72031;51.786;4.662;2023-08-20T12:28:00;102398.56;;;24.88;49.80
82395;BME280;72031;51.786;4.662;2023-08-20T12:30:25;102388.28;;;24.74;49.47
82395;BME280;72031;51.786;4.662;2023-08-20T12:32:51;102390.41;;;24.96;51.58
82395;BME280;72031;51.786;4.662;2023-08-20T12:35:16;102388.53;;;24.96;49.87
82395;BME280;72031;51.786;4.662;2023-08-20T12:37:42;102385.06;;;24.52;50.16
82395;BME280;72031;51.786;4.662;2023-08-20T12:40:08;102390.41;;;24.62;50.91
82395;BME280;72031;51.786;4.662;2023-08-20T12:42:37;102378.06;;;24.84;50.76
82395;BME280;72031;51.786;4.662;2023-08-20T12:45:05;102387.59;;;24.80;50.17
82395;BME280;72031;51.786;4.662;2023-08-20T12:47:31;102389.28;;;24.73;49.63
82395;BME280;72031;51.786;4.662;2023-08-20T12:49:57;102377.34;;;24.74;51.16
82395;BME280;72031;51.786;4.662;2023-08-20T12:52:22;102375.00;;;24.87;48.42
82395;BME280;72031;51.786;4.662;2023-08-20T12:54:48;102371.75;;;24.83;49.85
82395;BME280;72031;51.786;4.662;2023-08-20T12:57:13;102376.59;;;24.63;49.71
82395;BME280;72031;51.786;4.662;2023-08-20T12:59:39;102362.66;;;24.75;49.57